createdAt,value
2023-05-11T00:02:01.458Z,57.43
2023-05-11T00:04:28.631Z,57.97
2023-05-11T00:06:56.124Z,57.88
2023-05-11T00:09:23.126Z,59.74
2023-05-11T00:11:52.322Z,58.45
2023-05-11T00:14:19.397Z,58.40
2023-05-11T00:16:46.409Z,58.15
2023-05-11T00:19:13.379Z,58.97
2023-05-11T00:21:40.590Z,58.95
2023-05-11T00:24:08.173Z,58.92
2023-05-11T00:26:35.135Z,59.39
2023-05-11T00:29:02.118Z,58.95
2023-05-11T00:31:30.569Z,60.11
2023-05-11T00:33:57.821Z,59.35
2023-05-11T00:36:25.320Z,60.11
2023-05-11T00:38:52.986Z,60.23
2023-05-11T00:41:20.014Z,59.83
2023-05-11T00:43:47.120Z,59.36
2023-05-11T00:46:14.127Z,58.16
2023-05-11T00:48:41.121Z,57.99
2023-05-11T00:51:08.137Z,58.85
2023-05-11T00:53:35.184Z,58.24
2023-05-11T00:56:02.404Z,58.20
2023-05-11T00:58:29.774Z,58.85
2023-05-11T01:00:56.771Z,58.00
2023-05-11T01:03:23.895Z,58.19
2023-05-11T01:06:21.643Z,58.41
2023-05-11T01:08:57.167Z,58.59
2023-05-11T01:11:46.898Z,58.76
2023-05-11T01:14:16.806Z,59.55
2023-05-11T01:16:47.306Z,60.49
2023-05-11T01:19:18.930Z,59.98
2023-05-11T01:21:45.915Z,59.95
2023-05-11T01:24:21.366Z,60.16
2023-05-11T01:27:26.079Z,60.67
2023-05-11T01:30:20.197Z,60.31
2023-05-11T01:32:47.359Z,59.87
2023-05-11T01:35:22.546Z,59.23
2023-05-11T01:37:51.571Z,59.08
2023-05-11T01:40:19.166Z,59.62
2023-05-11T01:42:48.703Z,59.57
2023-05-11T01:45:15.889Z,60.16
2023-05-11T01:47:44.025Z,60.72
2023-05-11T01:50:11.099Z,62.59
2023-05-11T01:52:38.864Z,62.41
2023-05-11T01:55:06.411Z,60.86
2023-05-11T01:57:33.481Z,61.93
2023-05-11T02:00:00.652Z,62.05
2023-05-11T02:02:27.864Z,62.67
2023-05-11T02:04:55.081Z,62.78
2023-05-11T02:07:22.137Z,62.59
2023-05-11T02:09:50.170Z,62.64
2023-05-11T02:12:18.481Z,62.44
2023-05-11T02:14:46.233Z,62.30
2023-05-11T02:17:13.199Z,61.60
2023-05-11T02:19:40.387Z,61.38
2023-05-11T02:22:07.355Z,60.96
2023-05-11T02:24:34.326Z,61.02
2023-05-11T02:27:02.284Z,60.65
2023-05-11T02:29:29.418Z,60.28
2023-05-11T02:32:00.682Z,60.72
2023-05-11T02:34:38.985Z,61.28
2023-05-11T02:37:07.330Z,61.34
2023-05-11T02:39:35.951Z,61.30
2023-05-11T02:42:09.731Z,61.98
2023-05-11T02:44:37.308Z,61.60
2023-05-11T02:47:04.819Z,61.40
2023-05-11T02:49:33.327Z,60.72
2023-05-11T02:52:01.251Z,60.64
2023-05-11T02:54:28.736Z,60.48
2023-05-11T02:56:56.436Z,62.61
2023-05-11T02:59:24.998Z,62.86
2023-05-11T03:01:52.664Z,63.70
2023-05-11T03:04:19.836Z,62.51
2023-05-11T03:06:47.077Z,63.52
2023-05-11T03:09:14.150Z,63.99
2023-05-11T03:11:45.363Z,62.74
2023-05-11T03:14:12.469Z,62.96
2023-05-11T03:16:39.954Z,63.91
2023-05-11T03:19:08.254Z,63.13
2023-05-11T03:21:36.476Z,62.09
2023-05-11T03:24:05.737Z,61.77
2023-05-11T03:26:32.835Z,61.68
2023-05-11T03:29:00.361Z,62.61
2023-05-11T03:31:27.642Z,65.05
2023-05-11T03:33:55.001Z,64.35
2023-05-11T03:36:22.712Z,63.68
2023-05-11T03:38:50.298Z,64.40
2023-05-11T03:41:17.955Z,64.37
2023-05-11T03:43:51.634Z,63.61
2023-05-11T03:46:20.917Z,63.20
2023-05-11T03:48:48.193Z,62.22
2023-05-11T03:51:19.954Z,63.66
2023-05-11T03:53:46.986Z,65.78
2023-05-11T03:56:14.032Z,66.27
2023-05-11T03:58:41.209Z,64.36
2023-05-11T04:01:11.225Z,62.63
2023-05-11T04:03:51.558Z,61.60
2023-05-11T04:06:19.160Z,62.79
2023-05-11T04:08:50.628Z,62.29
2023-05-11T04:11:17.702Z,61.69
2023-05-11T04:13:44.841Z,62.31
2023-05-11T04:16:11.908Z,61.13
2023-05-11T04:18:39.027Z,61.54
2023-05-11T04:21:06.881Z,61.94
2023-05-11T04:23:33.841Z,62.73
2023-05-11T04:26:00.883Z,62.87
2023-05-11T04:28:28.147Z,64.39
2023-05-11T04:30:56.026Z,63.54
2023-05-11T04:33:23.672Z,63.82
2023-05-11T04:35:51.863Z,63.57
2023-05-11T04:38:19.576Z,63.28
2023-05-11T04:40:48.009Z,61.61
2023-05-11T04:43:16.125Z,62.06
2023-05-11T04:45:48.395Z,64.14
2023-05-11T04:48:20.318Z,66.13
2023-05-11T04:50:47.946Z,63.70
2023-05-11T04:53:16.822Z,63.15
2023-05-11T04:55:44.338Z,63.56
2023-05-11T04:58:12.065Z,62.75
2023-05-11T05:00:39.127Z,63.54
2023-05-11T05:03:06.169Z,62.66
2023-05-11T05:05:33.299Z,64.17
2023-05-11T05:08:00.845Z,62.60
2023-05-11T05:10:27.784Z,63.19
2023-05-11T05:12:54.801Z,63.01
2023-05-11T05:15:22.016Z,61.66
2023-05-11T05:17:49.199Z,63.14
2023-05-11T05:20:17.040Z,64.92
2023-05-11T05:22:44.326Z,63.86
2023-05-11T05:25:12.180Z,63.03
2023-05-11T05:27:39.468Z,63.21
2023-05-11T05:30:09.849Z,62.61
2023-05-11T05:32:36.868Z,63.57
2023-05-11T05:35:04.140Z,63.84
2023-05-11T05:37:31.195Z,62.81
2023-05-11T05:39:59.149Z,62.07
2023-05-11T05:42:26.191Z,63.81
2023-05-11T05:44:53.322Z,62.47
2023-05-11T05:47:21.304Z,63.25
2023-05-11T05:49:48.386Z,62.54
2023-05-11T05:52:15.498Z,63.79
2023-05-11T05:54:43.344Z,64.87
2023-05-11T05:57:10.639Z,66.21
2023-05-11T05:59:37.642Z,63.22
2023-05-11T06:02:06.493Z,62.83
2023-05-11T06:04:33.897Z,62.00
2023-05-11T06:07:01.074Z,62.51
2023-05-11T06:09:28.060Z,63.58
2023-05-11T06:11:55.053Z,64.03
2023-05-11T06:14:24.242Z,63.08
2023-05-11T06:16:51.705Z,64.12
2023-05-11T06:19:18.648Z,66.56
2023-05-11T06:21:46.240Z,66.59
2023-05-11T06:24:14.430Z,66.84
2023-05-11T06:26:43.319Z,66.35
2023-05-11T06:29:11.106Z,67.05
2023-05-11T06:31:39.005Z,66.95
2023-05-11T06:34:09.135Z,65.49
2023-05-11T06:36:36.923Z,66.32
2023-05-11T06:39:05.247Z,63.88
2023-05-11T06:41:32.497Z,67.04
2023-05-11T06:43:59.982Z,64.50
2023-05-11T06:46:33.057Z,68.85
2023-05-11T06:49:00.981Z,70.07
2023-05-11T06:51:28.045Z,69.40
2023-05-11T06:53:55.037Z,68.59
2023-05-11T06:56:22.338Z,67.05
2023-05-11T06:58:49.355Z,66.99
2023-05-11T07:01:17.033Z,66.49
2023-05-11T07:03:44.187Z,65.43
2023-05-11T07:06:11.213Z,67.15
2023-05-11T07:08:38.692Z,67.45
2023-05-11T07:11:05.792Z,66.04
2023-05-11T07:13:32.912Z,66.13
2023-05-11T07:15:59.913Z,65.19
2023-05-11T07:18:27.344Z,64.34
2023-05-11T07:20:54.395Z,64.33
2023-05-11T07:23:21.581Z,65.81
2023-05-11T07:25:48.587Z,65.42
2023-05-11T07:28:15.562Z,64.79
2023-05-11T07:30:42.573Z,66.17
2023-05-11T07:33:10.138Z,67.89
2023-05-11T07:35:37.157Z,65.48
2023-05-11T07:38:06.243Z,65.40
2023-05-11T07:40:33.318Z,65.06
2023-05-11T07:43:00.354Z,66.57
2023-05-11T07:45:27.426Z,67.36
2023-05-11T07:47:54.452Z,67.92
2023-05-11T07:50:23.914Z,67.27
2023-05-11T07:52:51.659Z,66.10
2023-05-11T07:55:20.526Z,63.94
2023-05-11T07:57:47.754Z,62.72
2023-05-11T08:00:15.754Z,64.40
2023-05-11T08:02:42.974Z,62.64
2023-05-11T08:05:10.256Z,62.04
2023-05-11T08:07:39.583Z,62.45
2023-05-11T08:10:08.746Z,62.25
2023-05-11T08:12:36.952Z,64.69
2023-05-11T08:15:04.922Z,64.81
2023-05-11T08:17:32.440Z,63.65
2023-05-11T08:19:59.494Z,62.90
2023-05-11T08:22:26.493Z,63.15
2023-05-11T08:24:53.510Z,63.40
2023-05-11T08:27:20.578Z,63.13
2023-05-11T08:29:47.521Z,61.81
2023-05-11T08:32:14.736Z,63.24
2023-05-11T08:34:41.818Z,62.04
2023-05-11T08:37:08.904Z,64.56
2023-05-11T08:39:46.509Z,65.19
2023-05-11T08:42:17.316Z,63.92
2023-05-11T08:44:44.621Z,65.45
2023-05-11T08:47:22.701Z,62.96
2023-05-11T08:49:51.254Z,64.56
2023-05-11T08:52:18.304Z,64.09
2023-05-11T08:54:48.418Z,62.74
2023-05-11T08:57:15.677Z,63.42
2023-05-11T08:59:44.981Z,64.90
2023-05-11T09:02:16.376Z,65.15
2023-05-11T09:04:46.041Z,63.71
2023-05-11T09:07:18.047Z,63.56
2023-05-11T09:09:46.066Z,62.98
2023-05-11T09:12:13.241Z,64.86
2023-05-11T09:14:40.400Z,65.81
2023-05-11T09:17:07.493Z,64.74
2023-05-11T09:19:34.978Z,64.34
2023-05-11T09:22:02.134Z,63.25
2023-05-11T09:24:29.262Z,64.91
2023-05-11T09:27:09.314Z,66.71
2023-05-11T09:29:36.583Z,66.70
2023-05-11T09:32:04.267Z,66.88
2023-05-11T09:34:31.543Z,63.98
2023-05-11T09:36:58.617Z,63.19
2023-05-11T09:39:42.220Z,66.22
2023-05-11T09:42:21.653Z,64.09
2023-05-11T09:44:48.749Z,62.63
2023-05-11T09:47:19.412Z,64.02
2023-05-11T09:49:47.161Z,63.81
2023-05-11T09:52:18.680Z,63.21
2023-05-11T09:54:46.968Z,65.12
2023-05-11T09:57:30.179Z,65.35
2023-05-11T09:59:58.246Z,65.47
2023-05-11T10:02:26.997Z,66.54
2023-05-11T10:04:56.190Z,66.94
2023-05-11T10:07:33.861Z,63.76
2023-05-11T10:10:02.945Z,62.82
2023-05-11T10:12:30.607Z,63.41
2023-05-11T10:15:03.827Z,62.69
2023-05-11T10:17:31.464Z,65.22
2023-05-11T10:19:59.114Z,62.99
2023-05-11T10:22:26.709Z,61.31
2023-05-11T10:24:54.155Z,61.96
2023-05-11T10:27:21.238Z,60.86
2023-05-11T10:29:48.698Z,60.86
2023-05-11T10:32:17.057Z,61.59
2023-05-11T10:34:44.871Z,60.89
2023-05-11T10:37:12.222Z,64.15
2023-05-11T10:39:42.937Z,60.99
2023-05-11T10:42:33.717Z,60.60
2023-05-11T10:45:07.884Z,59.29
2023-05-11T10:47:41.756Z,60.44
2023-05-11T10:50:27.136Z,61.36
2023-05-11T10:53:13.976Z,61.50
2023-05-11T10:56:12.431Z,60.97
2023-05-11T10:58:58.143Z,60.31
2023-05-11T11:01:40.210Z,59.48
2023-05-11T11:04:11.703Z,58.59
2023-05-11T11:06:42.664Z,62.15
2023-05-11T11:09:16.370Z,63.46
2023-05-11T11:11:48.144Z,63.43
2023-05-11T11:14:16.712Z,62.47
2023-05-11T11:17:14.746Z,61.18
2023-05-11T11:19:42.793Z,62.26
2023-05-11T11:22:34.675Z,62.23
2023-05-11T11:25:11.776Z,65.86
2023-05-11T11:27:41.814Z,62.78
2023-05-11T11:30:29.026Z,64.52
2023-05-11T11:33:08.144Z,64.86
2023-05-11T11:35:45.086Z,61.11
2023-05-11T11:38:19.029Z,62.47
2023-05-11T11:40:52.801Z,61.18
2023-05-11T11:43:24.934Z,61.01
2023-05-11T11:45:55.504Z,62.23
2023-05-11T11:48:31.479Z,65.78
2023-05-11T11:51:08.746Z,65.21
2023-05-11T11:53:42.140Z,64.45
2023-05-11T11:56:28.977Z,64.91
2023-05-11T11:58:55.996Z,64.22
2023-05-11T12:01:25.848Z,64.88
2023-05-11T12:04:36.881Z,63.05
2023-05-11T12:07:03.985Z,61.72
2023-05-11T12:09:31.092Z,62.66
2023-05-11T12:11:58.044Z,63.50
2023-05-11T12:14:25.084Z,66.15
2023-05-11T12:17:05.906Z,64.10
2023-05-11T12:19:32.944Z,63.34
2023-05-11T12:22:00.117Z,62.08
2023-05-11T12:24:27.329Z,63.00
2023-05-11T12:26:57.596Z,65.75
2023-05-11T12:29:24.881Z,64.93
2023-05-11T12:31:51.957Z,64.42
2023-05-11T12:34:21.457Z,64.63
2023-05-11T12:36:50.070Z,67.38
2023-05-11T12:39:24.139Z,65.79
2023-05-11T12:41:52.252Z,65.13
2023-05-11T12:44:19.530Z,64.18
2023-05-11T12:46:47.235Z,63.79
2023-05-11T12:51:52.953Z,62.01
2023-05-11T12:54:51.702Z,62.21
2023-05-11T12:57:31.808Z,63.39
2023-05-11T13:00:10.134Z,63.53
2023-05-11T13:02:51.089Z,61.74
2023-05-11T13:05:22.063Z,60.59
2023-05-11T13:07:57.734Z,61.39
2023-05-11T13:10:25.584Z,61.66
2023-05-11T13:12:52.876Z,62.59
2023-05-11T13:15:21.936Z,64.22
2023-05-11T13:17:50.362Z,64.24
2023-05-11T13:20:24.641Z,61.90
2023-05-11T13:22:51.677Z,61.40
2023-05-11T13:25:20.186Z,60.30
2023-05-11T13:27:47.476Z,60.26
2023-05-11T13:30:14.665Z,60.32
2023-05-11T13:32:41.722Z,63.06
2023-05-11T13:35:09.161Z,61.14
2023-05-11T13:37:36.179Z,60.53
2023-05-11T13:40:06.718Z,62.25
2023-05-11T13:42:33.933Z,63.47
2023-05-11T13:45:01.084Z,62.57
2023-05-11T13:47:28.061Z,61.61
2023-05-11T13:49:55.117Z,60.40
2023-05-11T13:52:22.500Z,62.63
2023-05-11T13:54:49.628Z,61.84
2023-05-11T13:57:16.865Z,60.84
2023-05-11T13:59:43.908Z,61.19
2023-05-11T14:02:11.716Z,62.16
2023-05-11T14:04:40.445Z,60.94
2023-05-11T14:07:07.574Z,63.10
2023-05-11T14:09:34.621Z,62.25
2023-05-11T14:12:01.580Z,61.89
2023-05-11T14:14:28.604Z,61.15
2023-05-11T14:16:56.350Z,59.55
2023-05-11T14:19:23.345Z,59.69
2023-05-11T14:21:50.628Z,60.39
2023-05-11T14:24:17.640Z,60.21
2023-05-11T14:26:44.680Z,60.08
2023-05-11T14:29:11.661Z,59.34
2023-05-11T14:31:39.212Z,59.43
2023-05-11T14:34:06.498Z,59.56
2023-05-11T14:36:33.523Z,60.60
2023-05-11T14:39:00.768Z,62.13
2023-05-11T14:41:27.753Z,61.50
2023-05-11T14:43:54.786Z,61.95
2023-05-11T14:46:22.749Z,63.13
2023-05-11T14:48:52.132Z,60.61
2023-05-11T14:51:19.078Z,62.05
2023-05-11T14:53:46.061Z,60.81
2023-05-11T14:56:13.050Z,62.67
2023-05-11T14:58:40.086Z,63.27
2023-05-11T15:01:07.273Z,63.12
2023-05-11T15:03:37.206Z,61.36
2023-05-11T15:06:04.452Z,61.62
2023-05-11T15:08:32.060Z,62.80
2023-05-11T15:10:59.130Z,62.17
2023-05-11T15:13:26.169Z,59.91
2023-05-11T15:15:53.334Z,59.81
2023-05-11T15:18:20.606Z,58.65
2023-05-11T15:20:47.608Z,59.23
2023-05-11T15:23:17.886Z,58.34
2023-05-11T15:25:45.437Z,58.35
2023-05-11T15:28:12.711Z,59.51
2023-05-11T15:30:41.765Z,59.20
2023-05-11T15:33:09.977Z,59.31
2023-05-11T15:35:37.487Z,58.83
2023-05-11T15:38:05.554Z,59.71
2023-05-11T15:40:32.671Z,59.12
2023-05-11T15:43:00.285Z,58.15
2023-05-11T15:45:27.381Z,57.10
2023-05-11T15:47:54.515Z,57.83
2023-05-11T15:50:22.337Z,58.96
2023-05-11T15:52:49.617Z,58.22
2023-05-11T15:55:16.675Z,59.06
2023-05-11T15:57:43.671Z,59.28
2023-05-11T16:00:11.538Z,59.44
2023-05-11T16:02:38.802Z,58.91
2023-05-11T16:05:06.347Z,58.54
2023-05-11T16:07:34.022Z,58.45
2023-05-11T16:10:01.458Z,57.68
2023-05-11T16:12:28.702Z,57.25
2023-05-11T16:14:56.002Z,58.21
2023-05-11T16:17:23.020Z,57.84
2023-05-11T16:19:50.037Z,58.56
2023-05-11T16:22:17.017Z,59.39
2023-05-11T16:24:44.020Z,58.09
2023-05-11T16:27:11.070Z,57.78
2023-05-11T16:29:38.108Z,57.97
2023-05-11T16:32:05.449Z,55.74
2023-05-11T16:34:32.727Z,56.74
2023-05-11T16:36:59.738Z,57.78
2023-05-11T16:39:26.942Z,57.09
2023-05-11T16:41:53.952Z,57.02
2023-05-11T16:44:21.231Z,56.69
2023-05-11T16:46:49.139Z,56.94
2023-05-11T16:49:16.733Z,56.95
2023-05-11T16:51:43.855Z,56.16
2023-05-11T16:54:11.313Z,56.08
2023-05-11T16:56:38.365Z,55.37
2023-05-11T16:59:05.393Z,55.42
2023-05-11T17:01:34.176Z,56.33
2023-05-11T17:04:01.404Z,56.07
2023-05-11T17:06:28.782Z,56.89
2023-05-11T17:08:55.819Z,57.78
2023-05-11T17:11:23.832Z,56.57
2023-05-11T17:13:51.443Z,56.60
2023-05-11T17:16:18.561Z,56.92
2023-05-11T17:18:46.492Z,57.78
2023-05-11T17:21:13.623Z,57.30
2023-05-11T17:23:40.692Z,58.50
2023-05-11T17:26:11.475Z,57.44
2023-05-11T17:28:39.191Z,57.64
2023-05-11T17:31:13.169Z,57.62
2023-05-11T17:33:40.858Z,57.60
2023-05-11T17:36:08.484Z,56.56
2023-05-11T17:38:35.533Z,56.13
2023-05-11T17:41:05.972Z,57.17
2023-05-11T17:43:33.770Z,56.96
2023-05-11T17:46:03.981Z,57.25
2023-05-11T17:48:32.198Z,57.02
2023-05-11T17:50:59.501Z,57.34
2023-05-11T17:53:27.441Z,56.68
2023-05-11T17:55:54.541Z,57.85
2023-05-11T17:58:21.538Z,56.57
2023-05-11T18:00:49.534Z,57.39
2023-05-11T18:03:17.068Z,57.23
2023-05-11T18:08:14.430Z,56.96
2023-05-11T18:10:41.657Z,56.84
2023-05-11T18:13:09.000Z,56.60
2023-05-11T18:15:36.051Z,56.92
2023-05-11T18:18:03.522Z,56.49
2023-05-11T18:20:31.021Z,56.53
2023-05-11T18:22:58.227Z,56.24
2023-05-11T18:25:28.073Z,55.29
2023-05-11T18:27:55.227Z,56.59
2023-05-11T18:30:22.442Z,56.12
2023-05-11T18:32:49.555Z,56.32
2023-05-11T18:35:17.092Z,56.97
2023-05-11T18:37:44.151Z,56.95
2023-05-11T18:40:11.701Z,57.20
2023-05-11T18:42:38.779Z,56.35
2023-05-11T18:45:07.544Z,56.38
2023-05-11T18:47:36.020Z,56.74
2023-05-11T18:50:04.200Z,56.59
2023-05-11T18:52:31.741Z,55.86
2023-05-11T18:54:58.837Z,56.06
2023-05-11T18:57:25.950Z,56.84
2023-05-11T18:59:53.161Z,57.74
2023-05-11T19:02:20.371Z,57.08
2023-05-11T19:04:47.508Z,56.90
2023-05-11T19:07:14.561Z,56.41
2023-05-11T19:09:41.669Z,56.53
2023-05-11T19:12:09.000Z,56.34
2023-05-11T19:14:37.655Z,55.73
2023-05-11T19:17:05.365Z,55.49
2023-05-11T19:19:33.233Z,55.10
2023-05-11T19:22:00.347Z,54.72
2023-05-11T19:24:28.508Z,55.08
2023-05-11T19:27:06.544Z,57.10
2023-05-11T19:29:35.650Z,55.79
2023-05-11T19:32:03.290Z,56.23
2023-05-11T19:34:30.458Z,56.33
2023-05-11T19:36:57.477Z,55.95
2023-05-11T19:39:24.670Z,55.87
2023-05-11T19:41:52.163Z,56.24
2023-05-11T19:44:19.283Z,55.39
2023-05-11T19:46:47.295Z,54.82
2023-05-11T19:49:15.512Z,54.80
2023-05-11T19:51:43.101Z,54.86
2023-05-11T19:54:11.025Z,55.30
2023-05-11T19:56:38.251Z,55.28
2023-05-11T19:59:05.397Z,55.68
2023-05-11T20:01:33.057Z,55.99
2023-05-11T20:04:00.255Z,55.87
2023-05-11T20:06:27.388Z,55.75
2023-05-11T20:08:54.589Z,55.84
2023-05-11T20:11:22.255Z,55.81
2023-05-11T20:13:49.541Z,55.29
2023-05-11T20:16:16.697Z,56.02
2023-05-11T20:18:43.980Z,56.09
2023-05-11T20:21:11.116Z,55.75
2023-05-11T20:23:40.322Z,55.50
2023-05-11T20:26:07.476Z,55.98
2023-05-11T20:28:34.501Z,55.99
2023-05-11T20:31:01.709Z,55.76
2023-05-11T20:35:59.085Z,56.11
2023-05-11T20:38:26.065Z,54.99
2023-05-11T20:40:59.432Z,55.46
2023-05-11T20:43:26.410Z,54.52
2023-05-11T20:45:54.047Z,55.25
2023-05-11T20:48:32.060Z,54.99
2023-05-11T20:51:03.240Z,55.25
2023-05-11T20:53:31.146Z,55.11
2023-05-11T20:55:58.146Z,55.79
2023-05-11T20:58:26.575Z,55.67
2023-05-11T21:00:53.615Z,55.90
2023-05-11T21:03:20.967Z,56.35
2023-05-11T21:05:47.999Z,56.16
2023-05-11T21:08:15.410Z,56.65
2023-05-11T21:10:42.444Z,56.86
2023-05-11T21:13:09.450Z,57.53
2023-05-11T21:15:36.404Z,59.98
2023-05-11T21:18:03.526Z,59.20
2023-05-11T21:20:30.624Z,59.18
2023-05-11T21:22:58.194Z,59.04
2023-05-11T21:25:25.307Z,57.69
2023-05-11T21:27:52.284Z,58.13
2023-05-11T21:30:19.400Z,57.33
2023-05-11T21:32:46.954Z,57.68
2023-05-11T21:35:15.091Z,57.66
2023-05-11T21:37:43.423Z,58.08
2023-05-11T21:40:11.881Z,57.94
2023-05-11T21:42:38.865Z,58.74
2023-05-11T21:45:06.714Z,60.04
2023-05-11T21:47:34.061Z,59.43
2023-05-11T21:50:01.243Z,59.12
2023-05-11T21:52:28.286Z,60.04
2023-05-11T21:54:55.234Z,59.76
2023-05-11T21:57:22.419Z,59.08
2023-05-11T21:59:51.149Z,59.27
2023-05-11T22:02:18.359Z,61.46
2023-05-11T22:04:46.403Z,62.24
2023-05-11T22:07:13.555Z,63.74
2023-05-11T22:09:40.597Z,62.26
2023-05-11T22:12:08.145Z,61.99
2023-05-11T22:14:35.338Z,61.86
2023-05-11T22:17:02.367Z,62.06
2023-05-11T22:19:30.034Z,62.04
2023-05-11T22:21:57.140Z,61.12
2023-05-11T22:24:27.396Z,61.81
2023-05-11T22:26:54.941Z,62.02
2023-05-11T22:29:21.930Z,61.58
2023-05-11T22:31:52.047Z,61.35
2023-05-11T22:34:22.246Z,61.14
2023-05-11T22:36:49.290Z,61.53
2023-05-11T22:39:16.387Z,61.38
2023-05-11T22:41:43.375Z,61.41
2023-05-11T22:44:10.756Z,61.28
2023-05-11T22:46:37.840Z,61.65
2023-05-11T22:49:04.956Z,61.43
2023-05-11T22:51:31.980Z,61.67
2023-05-11T22:53:58.992Z,61.29
2023-05-11T22:56:26.081Z,61.06
2023-05-11T22:58:54.987Z,62.33
2023-05-11T23:01:22.029Z,61.72
2023-05-11T23:03:49.152Z,60.91
2023-05-11T23:06:16.454Z,60.65
2023-05-11T23:08:43.516Z,60.77
2023-05-11T23:11:10.505Z,63.13
2023-05-11T23:13:38.246Z,62.70
2023-05-11T23:16:05.427Z,62.51
2023-05-11T23:18:32.967Z,62.83
2023-05-11T23:21:00.321Z,61.38
2023-05-11T23:23:27.329Z,60.95
2023-05-11T23:25:54.372Z,60.05
2023-05-11T23:28:21.355Z,60.77
2023-05-11T23:30:48.388Z,60.25
2023-05-11T23:33:15.348Z,60.15
2023-05-11T23:35:42.363Z,59.68
2023-05-11T23:38:09.430Z,59.14
2023-05-11T23:40:36.463Z,61.75
2023-05-11T23:43:03.500Z,60.66
2023-05-11T23:45:30.889Z,60.22
2023-05-11T23:47:58.113Z,59.61
2023-05-11T23:50:25.140Z,59.03
2023-05-11T23:52:52.096Z,59.31
2023-05-11T23:55:19.285Z,58.84
2023-05-11T23:57:46.269Z,59.50
